Time;durP1;ratioP1;P1;durP2;ratioP2;P2;SDS_P1;SDS_P2;PMS_P1;PMS_P2;Temp;Humidity;BMP_temperature;BMP_pressure;BME280_temperature;BME280_humidity;BME280_pressure;Samples;Min_cycle;Max_cycle;Signal;HPM_P1;HPM_P2
2022/09/06 00:01:07;;;;;;;4.45;1.50;;;;;;;;;;5053478;28;20017;-50
2022/09/06 00:03:32;;;;;;;;;;;;;;;;;;5051349;28;20381;-50
2022/09/06 00:05:58;;;;;;;3.97;1.70;;;;;;;;;;5049913;28;19920;-50
2022/09/06 00:08:23;;;;;;;2.65;1.35;;;;;;;;;;5054225;28;20492;-48
2022/09/06 00:10:57;;;;;;;3.00;1.40;;;;;;;;;;5057275;28;20557;-48
2022/09/06 00:13:23;;;;;;;6.15;1.60;;;;;;;;;;5051483;28;20025;-50
2022/09/06 00:15:48;;;;;;;4.55;1.33;;;;;;;;;;5049965;28;20032;-52
2022/09/06 00:18:14;;;;;;;2.47;1.30;;;;;;;;;;5049614;28;20108;-49
2022/09/06 00:20:40;;;;;;;7.22;1.73;;;;;;;;;;5046401;28;20071;-47
2022/09/06 00:23:06;;;;;;;1.65;1.25;;;;;;;;;;5045605;28;20029;-48
2022/09/06 00:25:32;;;;;;;3.40;1.58;;;;;;;;;;5054479;28;20082;-51
2022/09/06 00:28:00;;;;;;;6.13;1.73;;;;;;;;;;5053784;28;20044;-50
2022/09/06 00:30:27;;;;;;;4.88;1.25;;;;;;;;;;5052181;28;20054;-50
2022/09/06 00:32:54;;;;;;;3.33;1.35;;;;;;;;;;5057543;28;20016;-47
2022/09/06 00:35:21;;;;;;;2.28;1.50;;;;;;;;;;5051950;28;20439;-47
2022/09/06 00:37:46;;;;;;;3.15;1.05;;;;;;;;;;5054444;28;20624;-51
2022/09/06 00:40:12;;;;;;;4.05;1.40;;;;;;;;;;5047972;28;20472;-49
2022/09/06 00:42:38;;;;;;;4.65;1.45;;;;;;;;;;5054296;28;20033;-50
2022/09/06 00:45:06;;;;;;;4.60;1.40;;;;;;;;;;5049600;28;20592;-47
2022/09/06 00:47:33;;;;;;;2.45;1.50;;;;;;;;;;5050186;28;20025;-46
2022/09/06 00:49:59;;;;;;;2.63;1.30;;;;;;;;;;5049866;28;20021;-52
2022/09/06 00:52:26;;;;;;;3.55;1.23;;;;;;;;;;5055914;28;20119;-51
2022/09/06 00:54:52;;;;;;;2.85;1.30;;;;;;;;;;5046909;28;20544;-47
2022/09/06 00:57:18;;;;;;;3.53;1.40;;;;;;;;;;5009850;28;1167839;-50
2022/09/06 00:59:45;;;;;;;2.10;1.40;;;;;;;;;;5055296;28;20099;-50
2022/09/06 01:02:11;;;;;;;1.83;1.52;;;;;;;;;;5052396;28;20093;-47
2022/09/06 01:04:40;;;;;;;3.33;1.30;;;;;;;;;;5052251;28;20405;-50
2022/09/06 01:07:24;;;;;;;3.53;1.25;;;;;;;;;;5050448;28;20038;-52
2022/09/06 01:10:31;;;;;;;2.25;1.30;;;;;;;;;;5056498;28;20075;-50
2022/09/06 01:12:59;;;;;;;4.22;1.50;;;;;;;;;;5015201;28;20082;-52
2022/09/06 01:15:41;;;;;;;5.03;1.60;;;;;;;;;;5012217;28;20506;-47
2022/09/06 01:18:27;;;;;;;4.40;1.65;;;;;;;;;;5015847;28;20100;-47
2022/09/06 01:20:59;;;;;;;1.58;1.30;;;;;;;;;;5011222;28;20059;-49
2022/09/06 01:23:33;;;;;;;4.60;1.63;;;;;;;;;;5016471;28;20041;-50
2022/09/06 01:26:01;;;;;;;2.25;1.65;;;;;;;;;;5016711;28;20131;-48
2022/09/06 01:28:36;;;;;;;5.63;1.60;;;;;;;;;;5015702;28;20037;-50
2022/09/06 01:31:10;;;;;;;3.55;1.48;;;;;;;;;;5016462;28;20034;-49
2022/09/06 01:33:54;;;;;;;4.40;1.30;;;;;;;;;;5018465;28;20033;-50
2022/09/06 01:36:25;;;;;;;1.50;1.40;;;;;;;;;;5009447;28;20056;-50
2022/09/06 01:38:51;;;;;;;4.03;1.55;;;;;;;;;;5013681;28;20064;-51
2022/09/06 01:41:16;;;;;;;2.78;1.50;;;;;;;;;;5015532;28;20029;-48
2022/09/06 01:43:47;;;;;;;3.22;1.40;;;;;;;;;;5015129;28;20083;-49
2022/09/06 01:46:15;;;;;;;3.85;1.42;;;;;;;;;;5012694;28;20169;-45
2022/09/06 01:49:05;;;;;;;11.43;1.58;;;;;;;;;;5024701;28;20048;-51
2022/09/06 01:51:56;;;;;;;2.92;1.48;;;;;;;;;;5049659;28;20029;-52
2022/09/06 01:54:55;;;;;;;10.02;1.73;;;;;;;;;;5052608;28;20043;-47
2022/09/06 01:57:23;;;;;;;3.20;1.50;;;;;;;;;;5058599;28;20053;-48
2022/09/06 01:59:49;;;;;;;6.82;1.52;;;;;;;;;;5057244;28;20024;-50
2022/09/06 02:02:23;;;;;;;2.20;1.30;;;;;;;;;;5052552;28;20348;-49
2022/09/06 02:05:05;;;;;;;3.15;1.30;;;;;;;;;;5058722;28;20086;-45
2022/09/06 02:07:32;;;;;;;;;;;;;;;;;;5055911;28;20032;-50
2022/09/06 02:10:24;;;;;;;3.97;1.60;;;;;;;;;;5052082;28;19921;-46
2022/09/06 02:12:53;;;;;;;3.50;1.45;;;;;;;;;;5049790;28;20043;-52
2022/09/06 02:15:30;;;;;;;3.47;1.55;;;;;;;;;;5051235;28;20020;-51
2022/09/06 02:18:01;;;;;;;4.80;1.75;;;;;;;;;;5057155;28;20035;-52
2022/09/06 02:20:30;;;;;;;1.88;1.20;;;;;;;;;;5055198;28;20032;-48
2022/09/06 02:23:02;;;;;;;3.22;1.15;;;;;;;;;;5054448;28;20091;-51
2022/09/06 02:25:35;;;;;;;2.85;1.30;;;;;;;;;;5056575;28;20039;-49
2022/09/06 02:28:01;;;;;;;4.22;1.38;;;;;;;;;;5054699;28;20755;-48
2022/09/06 02:30:27;;;;;;;2.80;1.55;;;;;;;;;;5055002;28;20078;-49
2022/09/06 02:33:01;;;;;;;2.25;1.45;;;;;;;;;;5060295;28;20056;-52
2022/09/06 02:35:26;;;;;;;6.32;1.50;;;;;;;;;;5058318;28;20024;-52
2022/09/06 02:37:52;;;;;;;6.13;1.35;;;;;;;;;;5043697;28;20401;-45
2022/09/06 02:40:19;;;;;;;8.60;1.50;;;;;;;;;;5057329;28;20045;-51
2022/09/06 02:42:44;;;;;;;4.35;1.45;;;;;;;;;;5054243;28;20431;-49
2022/09/06 02:45:10;;;;;;;1.92;1.50;;;;;;;;;;5055822;28;20086;-49
2022/09/06 02:47:36;;;;;;;2.78;1.30;;;;;;;;;;5055570;28;20038;-48
2022/09/06 02:50:01;;;;;;;4.43;1.50;;;;;;;;;;5052072;28;20527;-51
2022/09/06 02:52:27;;;;;;;3.03;1.45;;;;;;;;;;5054980;28;20082;-47
2022/09/06 02:54:53;;;;;;;4.25;1.65;;;;;;;;;;5046252;28;20034;-48
2022/09/06 02:57:18;;;;;;;5.68;1.50;;;;;;;;;;5049935;28;20490;-52
2022/09/06 02:59:45;;;;;;;4.03;1.63;;;;;;;;;;5055629;28;20124;-48
2022/09/06 03:02:11;;;;;;;2.92;1.40;;;;;;;;;;5055808;28;20025;-50
2022/09/06 03:04:36;;;;;;;6.55;1.63;;;;;;;;;;5056469;28;20040;-48
2022/09/06 03:07:02;;;;;;;3.33;1.50;;;;;;;;;;5047724;28;20048;-52
2022/09/06 03:09:28;;;;;;;4.75;1.45;;;;;;;;;;5057138;28;20028;-48
2022/09/06 03:11:53;;;;;;;2.28;2.03;;;;;;;;;;5054761;28;20035;-46
2022/09/06 03:14:19;;;;;;;3.22;1.50;;;;;;;;;;5058963;28;20021;-49
2022/09/06 03:16:44;;;;;;;7.25;1.60;;;;;;;;;;5054608;28;20032;-51
2022/09/06 03:19:10;;;;;;;2.72;1.48;;;;;;;;;;5048122;28;20023;-48
2022/09/06 03:21:36;;;;;;;2.20;1.60;;;;;;;;;;5049784;28;20075;-46
2022/09/06 03:24:01;;;;;;;3.25;1.50;;;;;;;;;;5052496;28;20021;-48
2022/09/06 03:26:28;;;;;;;2.85;1.40;;;;;;;;;;5055422;28;20043;-51
2022/09/06 03:28:54;;;;;;;3.35;1.52;;;;;;;;;;5041367;28;20040;-52
2022/09/06 03:31:20;;;;;;;2.58;1.60;;;;;;;;;;5039740;28;20529;-49
2022/09/06 03:33:45;;;;;;;6.78;1.40;;;;;;;;;;5053640;28;20078;-49
2022/09/06 03:36:11;;;;;;;4.15;1.80;;;;;;;;;;5051444;28;20020;-45
2022/09/06 03:38:36;;;;;;;5.60;1.70;;;;;;;;;;5048591;28;20025;-50
2022/09/06 03:41:02;;;;;;;4.03;1.52;;;;;;;;;;5052804;28;20021;-49
2022/09/06 03:43:28;;;;;;;5.45;1.50;;;;;;;;;;5054933;28;20122;-52
2022/09/06 03:45:58;;;;;;;7.18;2.03;;;;;;;;;;5050762;28;20036;-51
2022/09/06 03:48:27;;;;;;;7.55;2.70;;;;;;;;;;5058655;28;20397;-45
2022/09/06 03:50:54;;;;;;;3.08;1.80;;;;;;;;;;5052265;28;20029;-48
2022/09/06 03:53:21;;;;;;;4.28;1.90;;;;;;;;;;5051981;28;20281;-49
2022/09/06 03:55:49;;;;;;;3.80;2.30;;;;;;;;;;5035671;28;20029;-50
2022/09/06 03:58:18;;;;;;;1.90;1.60;;;;;;;;;;5053592;28;20025;-49
2022/09/06 04:00:44;;;;;;;3.25;1.63;;;;;;;;;;5054681;28;20433;-48
2022/09/06 04:03:10;;;;;;;7.30;2.15;;;;;;;;;;5053191;28;20032;-50
2022/09/06 04:05:36;;;;;;;3.92;1.60;;;;;;;;;;5054134;28;20035;-47
2022/09/06 04:08:02;;;;;;;5.28;2.17;;;;;;;;;;5051173;28;20074;-46
2022/09/06 04:10:28;;;;;;;5.50;2.20;;;;;;;;;;5055348;28;20035;-47
2022/09/06 04:12:53;;;;;;;3.22;1.35;;;;;;;;;;5054002;28;20024;-48
2022/09/06 04:15:19;;;;;;;6.75;1.85;;;;;;;;;;5052738;28;20075;-52
2022/09/06 04:17:45;;;;;;;3.58;1.70;;;;;;;;;;5055838;28;20032;-46
2022/09/06 04:20:15;;;;;;;1.50;1.40;;;;;;;;;;5052954;28;20036;-49
2022/09/06 04:22:40;;;;;;;5.25;2.05;;;;;;;;;;5033493;28;20477;-51
2022/09/06 04:25:06;;;;;;;4.88;2.25;;;;;;;;;;5053581;28;20100;-47
2022/09/06 04:27:33;;;;;;;3.08;1.85;;;;;;;;;;5049036;28;20072;-50
2022/09/06 04:29:58;;;;;;;6.90;2.28;;;;;;;;;;5053051;28;20397;-48
2022/09/06 04:32:24;;;;;;;4.05;1.77;;;;;;;;;;5054479;28;20028;-51
2022/09/06 04:34:49;;;;;;;5.18;1.85;;;;;;;;;;5052145;28;20028;-48
2022/09/06 04:37:18;;;;;;;3.33;1.73;;;;;;;;;;5055166;28;20435;-50
2022/09/06 04:39:47;;;;;;;7.65;2.97;;;;;;;;;;5052843;28;20029;-50
2022/09/06 04:42:13;;;;;;;3.67;2.00;;;;;;;;;;5051156;28;20025;-46
2022/09/06 04:44:39;;;;;;;3.78;1.90;;;;;;;;;;5052005;28;20036;-51
2022/09/06 04:47:08;;;;;;;13.48;1.75;;;;;;;;;;5057618;28;20193;-50
2022/09/06 04:49:35;;;;;;;4.40;1.73;;;;;;;;;;5053867;28;20068;-50
2022/09/06 04:52:00;;;;;;;8.43;1.85;;;;;;;;;;5055075;28;20505;-49
2022/09/06 04:54:26;;;;;;;2.88;1.80;;;;;;;;;;5042761;28;20048;-48
2022/09/06 04:56:51;;;;;;;7.00;2.40;;;;;;;;;;5049814;28;20052;-49
2022/09/06 04:59:17;;;;;;;7.55;1.80;;;;;;;;;;5049257;28;20047;-50
2022/09/06 05:01:42;;;;;;;6.13;1.90;;;;;;;;;;5053760;28;20542;-47
2022/09/06 05:04:08;;;;;;;4.97;2.67;;;;;;;;;;5027340;28;21865;-52
2022/09/06 05:06:34;;;;;;;4.22;2.03;;;;;;;;;;5053504;28;20036;-48
2022/09/06 05:08:59;;;;;;;6.25;1.88;;;;;;;;;;5045411;28;20079;-51
2022/09/06 05:11:25;;;;;;;6.22;1.88;;;;;;;;;;5043192;28;20037;-50
2022/09/06 05:13:50;;;;;;;10.18;2.20;;;;;;;;;;5045869;28;20059;-45
2022/09/06 05:16:16;;;;;;;6.63;2.25;;;;;;;;;;5049387;28;20485;-48
2022/09/06 05:18:43;;;;;;;4.50;1.90;;;;;;;;;;5054474;28;20053;-49
2022/09/06 05:21:09;;;;;;;5.47;2.10;;;;;;;;;;5050342;28;20031;-49
2022/09/06 05:23:34;;;;;;;8.48;2.05;;;;;;;;;;5054854;28;20036;-49
2022/09/06 05:26:00;;;;;;;4.05;2.38;;;;;;;;;;5059376;28;20029;-45
2022/09/06 05:28:26;;;;;;;4.28;2.08;;;;;;;;;;5049975;28;20031;-49
2022/09/06 05:30:51;;;;;;;8.27;2.78;;;;;;;;;;5052634;28;20420;-47
2022/09/06 05:33:21;;;;;;;4.07;1.65;;;;;;;;;;5054918;28;20605;-48
2022/09/06 05:35:47;;;;;;;2.67;1.75;;;;;;;;;;5058310;28;20032;-49
2022/09/06 05:38:13;;;;;;;4.07;1.30;;;;;;;;;;5041273;28;20020;-48
2022/09/06 05:40:39;;;;;;;3.92;1.92;;;;;;;;;;5054844;28;20036;-50
2022/09/06 05:43:04;;;;;;;6.00;1.95;;;;;;;;;;5060237;28;20025;-48
2022/09/06 05:45:30;;;;;;;8.15;2.13;;;;;;;;;;5039666;28;20026;-45
2022/09/06 05:47:55;;;;;;;6.40;2.22;;;;;;;;;;5051357;28;20033;-46
2022/09/06 05:50:21;;;;;;;5.13;1.90;;;;;;;;;;5056812;28;20025;-47
2022/09/06 05:52:47;;;;;;;3.13;1.70;;;;;;;;;;5053215;28;20033;-49
2022/09/06 05:55:12;;;;;;;4.20;1.80;;;;;;;;;;5052634;28;20473;-49
2022/09/06 05:57:38;;;;;;;11.98;1.92;;;;;;;;;;5053347;28;20378;-47
2022/09/06 06:00:05;;;;;;;6.05;1.88;;;;;;;;;;5054066;28;20469;-45
2022/09/06 06:02:31;;;;;;;5.78;2.10;;;;;;;;;;5030947;28;20474;-47
2022/09/06 06:04:57;;;;;;;9.13;2.13;;;;;;;;;;5053133;28;20039;-47
2022/09/06 06:07:23;;;;;;;7.78;2.30;;;;;;;;;;5053172;28;20025;-46
2022/09/06 06:09:48;;;;;;;5.97;2.00;;;;;;;;;;5056258;28;20021;-49
2022/09/06 06:12:14;;;;;;;2.45;1.80;;;;;;;;;;5053490;28;20035;-46
2022/09/06 06:14:39;;;;;;;7.70;2.03;;;;;;;;;;5057412;28;20028;-45
2022/09/06 06:17:05;;;;;;;6.25;2.58;;;;;;;;;;5055290;28;20044;-50
2022/09/06 06:19:31;;;;;;;7.25;2.35;;;;;;;;;;5049981;28;20030;-45
2022/09/06 06:21:57;;;;;;;5.72;2.33;;;;;;;;;;5054171;28;20504;-45
2022/09/06 06:24:23;;;;;;;10.45;2.67;;;;;;;;;;5055936;28;20425;-46
2022/09/06 06:26:48;;;;;;;3.88;2.15;;;;;;;;;;5060078;28;20028;-51
2022/09/06 06:29:14;;;;;;;4.05;2.28;;;;;;;;;;5048370;28;20032;-47
2022/09/06 06:31:40;;;;;;;3.03;1.73;;;;;;;;;;5053568;28;20180;-45
2022/09/06 06:34:06;;;;;;;6.68;2.28;;;;;;;;;;5054657;28;20029;-48
2022/09/06 06:36:34;;;;;;;8.50;2.08;;;;;;;;;;5047044;28;20040;-46
2022/09/06 06:39:01;;;;;;;4.03;2.00;;;;;;;;;;5049986;28;20017;-46
2022/09/06 06:41:29;;;;;;;11.90;2.30;;;;;;;;;;5055681;28;20060;-52
2022/09/06 06:43:57;;;;;;;5.15;2.67;;;;;;;;;;5055094;28;20104;-49
2022/09/06 06:46:25;;;;;;;4.63;2.30;;;;;;;;;;5055279;28;20120;-49
2022/09/06 06:48:53;;;;;;;6.72;2.72;;;;;;;;;;5050237;28;20067;-49
2022/09/06 06:51:20;;;;;;;5.15;2.20;;;;;;;;;;5055676;28;20025;-49
2022/09/06 06:53:47;;;;;;;7.95;2.20;;;;;;;;;;5053202;28;20036;-47
2022/09/06 06:56:19;;;;;;;6.35;2.20;;;;;;;;;;5049190;28;20040;-51
2022/09/06 06:58:47;;;;;;;8.05;2.63;;;;;;;;;;5050035;28;20489;-45
2022/09/06 07:01:12;;;;;;;5.78;2.10;;;;;;;;;;5053693;28;20039;-51
2022/09/06 07:03:38;;;;;;;10.43;2.60;;;;;;;;;;5048156;28;20473;-46
2022/09/06 07:06:04;;;;;;;6.55;2.40;;;;;;;;;;5050803;28;20508;-47
2022/09/06 07:08:30;;;;;;;3.80;2.20;;;;;;;;;;5049271;28;20099;-50
2022/09/06 07:10:56;;;;;;;5.88;1.98;;;;;;;;;;5044165;28;20029;-47
2022/09/06 07:13:21;;;;;;;7.07;2.90;;;;;;;;;;5053947;28;20063;-50
2022/09/06 07:15:47;;;;;;;9.32;2.60;;;;;;;;;;5050045;28;20371;-48
2022/09/06 07:18:16;;;;;;;8.75;2.70;;;;;;;;;;5047741;28;20074;-50
2022/09/06 07:20:42;;;;;;;10.30;2.33;;;;;;;;;;5052254;28;20580;-51
2022/09/06 07:23:08;;;;;;;4.18;2.20;;;;;;;;;;5052775;28;20111;-53
2022/09/06 07:25:34;;;;;;;8.65;2.95;;;;;;;;;;5047698;28;20120;-49
2022/09/06 07:28:07;;;;;;;7.70;2.55;;;;;;;;;;5047698;28;20100;-52
2022/09/06 07:30:36;;;;;;;6.90;2.75;;;;;;;;;;5044788;28;20060;-47
2022/09/06 07:33:05;;;;;;;7.95;2.13;;;;;;;;;;5047301;28;20405;-50
2022/09/06 07:35:31;;;;;;;5.88;2.30;;;;;;;;;;5037340;28;20106;-52
2022/09/06 07:37:58;;;;;;;10.00;2.75;;;;;;;;;;5055656;28;20025;-47
2022/09/06 07:40:25;;;;;;;9.02;2.53;;;;;;;;;;5051029;28;20486;-48
2022/09/06 07:42:54;;;;;;;9.25;2.58;;;;;;;;;;5050743;28;20043;-48
2022/09/06 07:45:20;;;;;;;8.68;2.80;;;;;;;;;;5048756;28;20086;-48
2022/09/06 07:47:53;;;;;;;10.30;2.08;;;;;;;;;;5052141;28;20032;-49
2022/09/06 07:50:18;;;;;;;8.90;2.30;;;;;;;;;;5050311;28;20025;-49
2022/09/06 07:52:44;;;;;;;16.33;3.10;;;;;;;;;;5055028;28;20028;-52
2022/09/06 07:55:09;;;;;;;9.20;2.55;;;;;;;;;;5049834;28;20428;-47
2022/09/06 07:57:35;;;;;;;9.15;2.70;;;;;;;;;;5053080;28;20803;-46
2022/09/06 08:00:01;;;;;;;9.10;3.15;;;;;;;;;;5057674;28;20029;-49
2022/09/06 08:02:28;;;;;;;10.55;2.63;;;;;;;;;;5051383;28;20154;-50
2022/09/06 08:04:55;;;;;;;8.15;2.50;;;;;;;;;;5055062;28;20056;-45
2022/09/06 08:07:21;;;;;;;13.25;2.85;;;;;;;;;;5050069;28;20033;-47
2022/09/06 08:09:46;;;;;;;15.65;3.35;;;;;;;;;;5048083;28;20025;-50
2022/09/06 08:12:12;;;;;;;13.82;2.70;;;;;;;;;;5047440;28;20024;-47
2022/09/06 08:14:37;;;;;;;16.33;3.20;;;;;;;;;;5049607;28;20086;-49
2022/09/06 08:17:03;;;;;;;10.70;2.45;;;;;;;;;;5042351;28;20032;-52
2022/09/06 08:19:29;;;;;;;14.25;3.03;;;;;;;;;;5044841;28;20025;-52
2022/09/06 08:21:55;;;;;;;11.23;3.05;;;;;;;;;;5053267;28;20756;-49
2022/09/06 08:24:21;;;;;;;16.15;2.90;;;;;;;;;;5053928;28;20025;-48
2022/09/06 08:26:46;;;;;;;10.32;3.05;;;;;;;;;;5050573;28;20037;-47
2022/09/06 08:29:12;;;;;;;11.13;3.20;;;;;;;;;;5042205;28;20021;-48
2022/09/06 08:31:40;;;;;;;9.85;2.83;;;;;;;;;;5048496;28;20045;-48
2022/09/06 08:34:06;;;;;;;12.35;2.83;;;;;;;;;;5054627;28;20029;-46
2022/09/06 08:36:33;;;;;;;10.25;3.03;;;;;;;;;;5052791;28;20029;-48
2022/09/06 08:39:00;;;;;;;9.10;2.60;;;;;;;;;;5050356;28;20036;-50
2022/09/06 08:41:46;;;;;;;12.07;2.80;;;;;;;;;;5051945;28;20051;-52
2022/09/06 08:44:27;;;;;;;14.63;3.05;;;;;;;;;;5050005;28;20037;-51
2022/09/06 08:46:57;;;;;;;9.98;3.00;;;;;;;;;;5053437;28;20063;-46
2022/09/06 08:49:29;;;;;;;13.77;3.20;;;;;;;;;;5054683;28;20040;-50
2022/09/06 08:52:09;;;;;;;12.90;2.65;;;;;;;;;;5049492;28;20122;-51
2022/09/06 08:55:04;;;;;;;7.55;2.40;;;;;;;;;;5037601;28;20045;-48
2022/09/06 08:58:01;;;;;;;17.20;2.65;;;;;;;;;;5040380;28;20045;-52
2022/09/06 09:00:26;;;;;;;12.93;2.90;;;;;;;;;;5050402;28;20032;-52
2022/09/06 09:03:02;;;;;;;14.18;3.50;;;;;;;;;;5055920;28;20029;-47
2022/09/06 09:05:31;;;;;;;18.45;3.33;;;;;;;;;;5052905;28;20029;-48
2022/09/06 09:07:59;;;;;;;14.13;3.10;;;;;;;;;;5055254;28;20037;-50
2022/09/06 09:10:28;;;;;;;10.82;2.72;;;;;;;;;;5052976;28;20032;-52
2022/09/06 09:12:54;;;;;;;14.90;3.00;;;;;;;;;;5060340;28;20477;-51
2022/09/06 09:15:20;;;;;;;15.68;2.72;;;;;;;;;;5054677;28;20167;-49
2022/09/06 09:17:50;;;;;;;16.60;3.50;;;;;;;;;;5056501;28;20076;-47
2022/09/06 09:20:16;;;;;;;11.43;3.70;;;;;;;;;;5052970;28;20029;-48
2022/09/06 09:22:43;;;;;;;8.10;2.55;;;;;;;;;;5051353;28;20715;-49
2022/09/06 09:25:16;;;;;;;12.25;3.50;;;;;;;;;;5053644;28;20058;-50
2022/09/06 09:27:44;;;;;;;15.23;3.28;;;;;;;;;;5059636;28;20117;-48
2022/09/06 09:30:10;;;;;;;12.07;2.75;;;;;;;;;;5053138;28;20021;-47
2022/09/06 09:32:38;;;;;;;10.45;3.20;;;;;;;;;;5055541;28;20029;-51
2022/09/06 09:35:28;;;;;;;15.75;2.92;;;;;;;;;;5048333;28;20029;-49
2022/09/06 09:38:28;;;;;;;7.70;3.17;;;;;;;;;;5056094;28;20039;-53
2022/09/06 09:40:55;;;;;;;15.52;3.90;;;;;;;;;;5042637;28;21614;-51
2022/09/06 09:43:26;;;;;;;8.25;2.67;;;;;;;;;;5060051;28;20024;-50
2022/09/06 09:46:23;;;;;;;10.20;3.28;;;;;;;;;;5055315;28;20029;-50
2022/09/06 09:49:03;;;;;;;9.32;2.72;;;;;;;;;;5048539;28;20090;-51
2022/09/06 09:51:31;;;;;;;16.33;3.30;;;;;;;;;;5045136;28;20032;-45
2022/09/06 09:54:03;;;;;;;12.10;3.25;;;;;;;;;;5055459;28;20029;-46
2022/09/06 09:56:32;;;;;;;;;;;;;;;;;;5056577;28;20032;-53
2022/09/06 09:58:58;;;;;;;16.70;3.10;;;;;;;;;;5055988;28;19924;-50
2022/09/06 10:01:28;;;;;;;10.55;2.90;;;;;;;;;;5057756;28;20449;-47
2022/09/06 10:04:01;;;;;;;12.52;3.38;;;;;;;;;;5061126;28;20515;-49
2022/09/06 10:06:27;;;;;;;8.82;2.85;;;;;;;;;;5047651;28;20437;-47
2022/09/06 10:08:54;;;;;;;12.18;3.65;;;;;;;;;;5056566;28;20020;-48
2022/09/06 10:11:47;;;;;;;14.95;3.50;;;;;;;;;;5056410;28;20025;-49
2022/09/06 10:14:32;;;;;;;11.98;3.35;;;;;;;;;;5049888;28;20031;-46
2022/09/06 10:16:59;;;;;;;15.05;3.70;;;;;;;;;;5041802;28;20026;-49
2022/09/06 10:19:54;;;;;;;15.18;4.05;;;;;;;;;;5053761;28;20044;-46
2022/09/06 10:22:33;;;;;;;13.23;3.50;;;;;;;;;;5039843;28;20037;-52
2022/09/06 10:25:31;;;;;;;19.90;3.83;;;;;;;;;;5044818;28;20084;-46
2022/09/06 10:28:09;;;;;;;20.23;4.15;;;;;;;;;;4993252;28;20129;-51
2022/09/06 10:31:03;;;;;;;14.13;3.53;;;;;;;;;;4990749;28;20654;-48
2022/09/06 10:33:46;;;;;;;10.20;3.58;;;;;;;;;;4968852;28;20076;-50
2022/09/06 10:36:18;;;;;;;19.80;4.40;;;;;;;;;;4964775;28;20038;-51
2022/09/06 10:38:57;;;;;;;18.80;3.17;;;;;;;;;;4968039;28;20073;-48
2022/09/06 10:41:50;;;;;;;11.07;3.10;;;;;;;;;;4967609;28;20067;-47
2022/09/06 10:44:44;;;;;;;13.60;3.55;;;;;;;;;;4970135;28;20054;-47
2022/09/06 10:47:13;;;;;;;19.15;3.20;;;;;;;;;;4967161;28;20381;-47
2022/09/06 10:49:53;;;;;;;15.07;3.20;;;;;;;;;;4966977;28;20114;-50
2022/09/06 10:52:26;;;;;;;11.45;3.25;;;;;;;;;;4968259;28;20042;-47
2022/09/06 10:54:56;;;;;;;20.98;3.60;;;;;;;;;;4968824;28;20129;-48
2022/09/06 10:57:28;;;;;;;17.13;3.65;;;;;;;;;;4967056;28;20070;-47
2022/09/06 11:00:12;;;;;;;15.07;3.05;;;;;;;;;;4968268;28;20038;-45
2022/09/06 11:02:55;;;;;;;13.63;3.85;;;;;;;;;;4967847;28;20090;-50
2022/09/06 11:05:28;;;;;;;14.18;3.50;;;;;;;;;;4981052;28;20045;-46
2022/09/06 11:08:02;;;;;;;12.45;3.67;;;;;;;;;;4985587;28;20158;-46
2022/09/06 11:10:31;;;;;;;19.00;3.30;;;;;;;;;;5022147;28;20030;-46
2022/09/06 11:13:02;;;;;;;18.23;3.72;;;;;;;;;;5050884;28;20848;-48
2022/09/06 11:15:40;;;;;;;14.43;3.00;;;;;;;;;;5052209;28;20393;-48
2022/09/06 11:18:27;;;;;;;11.57;3.17;;;;;;;;;;5057700;28;20052;-49
2022/09/06 11:20:55;;;;;;;15.75;3.55;;;;;;;;;;5049784;28;20056;-51
2022/09/06 11:23:47;;;;;;;18.15;3.30;;;;;;;;;;5053541;28;20564;-46
2022/09/06 11:26:24;;;;;;;23.48;3.60;;;;;;;;;;5048495;28;20087;-46
2022/09/06 11:28:56;;;;;;;16.35;3.95;;;;;;;;;;5052882;28;20033;-46
2022/09/06 11:31:27;;;;;;;17.50;3.88;;;;;;;;;;5055082;28;20036;-48
2022/09/06 11:34:20;;;;;;;13.07;3.50;;;;;;;;;;5058000;28;20028;-46
2022/09/06 11:36:49;;;;;;;16.85;3.53;;;;;;;;;;5046006;28;20055;-46
2022/09/06 11:39:25;;;;;;;20.45;4.07;;;;;;;;;;5054048;28;20424;-45
2022/09/06 11:41:51;;;;;;;13.80;3.53;;;;;;;;;;5049845;28;20036;-49
2022/09/06 11:44:56;;;;;;;14.90;3.67;;;;;;;;;;5055236;28;20024;-46
2022/09/06 11:47:40;;;;;;;15.68;3.75;;;;;;;;;;4991452;28;20045;-48
2022/09/06 11:50:25;;;;;;;21.65;4.35;;;;;;;;;;4996904;28;20049;-46
2022/09/06 11:52:53;;;;;;;13.95;3.70;;;;;;;;;;4995504;28;20108;-51
2022/09/06 11:55:23;;;;;;;14.50;3.78;;;;;;;;;;4992272;28;20065;-52
2022/09/06 11:57:54;;;;;;;12.43;3.33;;;;;;;;;;4992165;28;20051;-46
2022/09/06 12:00:23;;;;;;;12.98;3.17;;;;;;;;;;4999311;28;20045;-47
2022/09/06 12:02:50;;;;;;;13.30;3.50;;;;;;;;;;4995944;28;20030;-48
2022/09/06 12:05:21;;;;;;;17.38;3.63;;;;;;;;;;4975333;28;20125;-46
2022/09/06 12:08:06;;;;;;;;;;;;;;;;;;4991795;28;20030;-46
2022/09/06 12:11:25;;;;;;;12.82;3.42;;;;;;;;;;4977511;28;19945;-47
2022/09/06 12:13:55;;;;;;;12.35;3.20;;;;;;;;;;4944511;29;20038;-47
2022/09/06 12:16:21;;;;;;;19.55;4.00;;;;;;;;;;4946106;28;20094;-46
2022/09/06 12:18:47;;;;;;;17.30;3.40;;;;;;;;;;4946978;29;20070;-48
2022/09/06 12:21:41;;;;;;;22.13;4.43;;;;;;;;;;4943660;28;20043;-49
2022/09/06 12:24:33;;;;;;;16.60;3.40;;;;;;;;;;4958607;28;20038;-46
2022/09/06 12:27:20;;;;;;;12.13;3.22;;;;;;;;;;4976827;28;20046;-47
2022/09/06 12:29:50;;;;;;;17.13;3.50;;;;;;;;;;4982235;28;20491;-47
2022/09/06 12:32:25;;;;;;;15.35;4.15;;;;;;;;;;4982460;28;20034;-48
2022/09/06 12:34:52;;;;;;;19.38;4.47;;;;;;;;;;4981839;28;20057;-46
2022/09/06 12:37:36;;;;;;;13.77;3.65;;;;;;;;;;4982657;28;20614;-49
2022/09/06 12:40:05;;;;;;;19.55;4.07;;;;;;;;;;4983690;28;20034;-49
2022/09/06 12:42:34;;;;;;;11.45;2.92;;;;;;;;;;4985039;28;20687;-47
2022/09/06 12:45:03;;;;;;;12.10;3.45;;;;;;;;;;4980184;28;20030;-50
2022/09/06 12:47:34;;;;;;;21.80;4.32;;;;;;;;;;5013739;28;20044;-52
2022/09/06 12:50:07;;;;;;;17.42;4.22;;;;;;;;;;5044442;28;20489;-48
2022/09/06 12:52:52;;;;;;;17.20;4.40;;;;;;;;;;5042230;28;20037;-46
2022/09/06 12:55:27;;;;;;;22.17;4.20;;;;;;;;;;5040458;28;20057;-48
2022/09/06 12:57:56;;;;;;;20.10;4.13;;;;;;;;;;5054676;28;20099;-46
2022/09/06 13:00:24;;;;;;;22.02;4.10;;;;;;;;;;5044222;28;20033;-47
2022/09/06 13:03:00;;;;;;;18.70;3.55;;;;;;;;;;5050076;28;20107;-46
2022/09/06 13:05:27;;;;;;;17.17;3.92;;;;;;;;;;5050610;28;20446;-49
2022/09/06 13:07:56;;;;;;;17.70;3.67;;;;;;;;;;5053938;28;20167;-47
2022/09/06 13:10:25;;;;;;;18.77;4.05;;;;;;;;;;5050077;28;20119;-52
2022/09/06 13:12:52;;;;;;;20.08;3.75;;;;;;;;;;5050548;28;20021;-50
2022/09/06 13:15:32;;;;;;;21.55;4.30;;;;;;;;;;5051437;28;20623;-50
2022/09/06 13:18:35;;;;;;;27.25;4.60;;;;;;;;;;5051161;28;20048;-47
2022/09/06 13:21:18;;;;;;;22.10;3.50;;;;;;;;;;5049728;28;20493;-47
2022/09/06 13:23:49;;;;;;;21.92;4.63;;;;;;;;;;5051264;28;20031;-52
2022/09/06 13:26:31;;;;;;;19.90;4.85;;;;;;;;;;5052673;28;20144;-49
2022/09/06 13:29:07;;;;;;;24.30;4.60;;;;;;;;;;5048210;28;20036;-50
2022/09/06 13:31:33;;;;;;;20.55;4.43;;;;;;;;;;5048470;28;20064;-48
2022/09/06 13:33:58;;;;;;;15.70;3.65;;;;;;;;;;5046438;28;20052;-48
2022/09/06 13:36:32;;;;;;;18.05;4.22;;;;;;;;;;5052763;28;20028;-46
2022/09/06 13:39:00;;;;;;;14.63;3.85;;;;;;;;;;5050912;28;20048;-46
2022/09/06 13:41:26;;;;;;;22.60;4.43;;;;;;;;;;5055516;28;20095;-52
2022/09/06 13:44:26;;;;;;;26.17;4.78;;;;;;;;;;5054922;28;20021;-52
2022/09/06 13:46:55;;;;;;;18.17;4.18;;;;;;;;;;5051579;28;20492;-51
2022/09/06 13:49:24;;;;;;;14.90;3.58;;;;;;;;;;5052636;28;20029;-53
2022/09/06 13:51:56;;;;;;;15.15;3.53;;;;;;;;;;5055818;28;20100;-51
2022/09/06 13:54:22;;;;;;;14.32;3.30;;;;;;;;;;5053021;28;20040;-50
2022/09/06 13:56:48;;;;;;;16.13;3.75;;;;;;;;;;5054285;28;20041;-52
2022/09/06 13:59:15;;;;;;;13.02;4.07;;;;;;;;;;5058674;28;20052;-48
2022/09/06 14:01:43;;;;;;;17.98;4.00;;;;;;;;;;5053387;28;20099;-52
2022/09/06 14:04:18;;;;;;;12.80;3.47;;;;;;;;;;5056478;28;20055;-47
2022/09/06 14:06:45;;;;;;;17.15;4.32;;;;;;;;;;5055398;28;20035;-50
2022/09/06 14:09:11;;;;;;;15.90;3.78;;;;;;;;;;5055447;28;20055;-50
2022/09/06 14:11:36;;;;;;;19.08;3.55;;;;;;;;;;5048253;28;20470;-46
2022/09/06 14:14:02;;;;;;;17.92;4.05;;;;;;;;;;5056574;28;20460;-47
2022/09/06 14:16:28;;;;;;;16.98;3.95;;;;;;;;;;5055887;28;20493;-46
2022/09/06 14:18:54;;;;;;;12.80;3.65;;;;;;;;;;5042280;28;20086;-50
2022/09/06 14:21:20;;;;;;;19.50;3.75;;;;;;;;;;5045654;28;20025;-52
2022/09/06 14:23:49;;;;;;;14.32;3.38;;;;;;;;;;5058058;28;20029;-46
2022/09/06 14:26:15;;;;;;;22.77;4.53;;;;;;;;;;5057101;28;20025;-53
2022/09/06 14:28:41;;;;;;;21.08;4.43;;;;;;;;;;5049146;28;20437;-47
2022/09/06 14:31:10;;;;;;;14.05;3.30;;;;;;;;;;5061216;28;20063;-49
2022/09/06 14:33:35;;;;;;;16.00;4.22;;;;;;;;;;5057775;28;20059;-51
2022/09/06 14:36:05;;;;;;;11.20;3.70;;;;;;;;;;5052131;28;20528;-51
2022/09/06 14:38:35;;;;;;;21.98;4.00;;;;;;;;;;5047812;28;20496;-47
2022/09/06 14:41:04;;;;;;;21.65;4.40;;;;;;;;;;5051012;28;20036;-48
2022/09/06 14:43:30;;;;;;;18.42;3.80;;;;;;;;;;5048826;28;20025;-48
2022/09/06 14:46:02;;;;;;;15.80;4.25;;;;;;;;;;5058845;28;20021;-52
2022/09/06 14:48:28;;;;;;;20.73;4.03;;;;;;;;;;5047498;28;20484;-48
2022/09/06 14:50:54;;;;;;;17.83;4.53;;;;;;;;;;5054169;28;20124;-49
2022/09/06 14:53:19;;;;;;;19.92;4.10;;;;;;;;;;5052084;28;20541;-49
2022/09/06 14:55:45;;;;;;;18.45;4.35;;;;;;;;;;5051934;28;20028;-49
2022/09/06 14:58:12;;;;;;;23.80;4.38;;;;;;;;;;5048548;28;20131;-48